Time;durP1;ratioP1;P1;durP2;ratioP2;P2;SDS_P1;SDS_P2;PMS_P1;PMS_P2;Temp;Humidity;BMP_temperature;BMP_pressure;BME280_temperature;BME280_humidity;BME280_pressure;Samples;Min_cycle;Max_cycle;Signal;HPM_P1;HPM_P2
2023/03/12 00:01:32;;;;;;;0.10;0.10;;;;;;;11.05;76.14;99632.38;7359498;19;20010;-58
2023/03/12 00:03:59;;;;;;;0.00;0.00;;;;;;;11.07;76.44;99633.16;7359757;19;20010;-57
2023/03/12 00:06:25;;;;;;;;;;;;;;;11.10;76.13;99627.81;7358315;19;20026;-58
2023/03/12 00:08:50;;;;;;;0.10;0.10;;;;;;;11.10;76.37;99633.03;7358471;19;19922;-58
2023/03/12 00:11:18;;;;;;;0.00;0.00;;;;;;;11.14;76.25;99628.50;7359481;19;20569;-58
2023/03/12 00:13:43;;;;;;;;;;;;;;;11.15;76.30;99628.47;7359608;19;20003;-58
2023/03/12 00:16:14;;;;;;;0.03;0.03;;;;;;;11.13;76.40;99632.03;7356078;19;19932;-58
2023/03/12 00:18:41;;;;;;;0.00;0.00;;;;;;;11.09;76.16;99622.63;7359808;19;20027;-58
2023/03/12 00:21:07;;;;;;;0.00;0.00;;;;;;;11.08;76.20;99613.94;7356532;19;20597;-59
2023/03/12 00:23:33;;;;;;;0.00;0.00;;;;;;;11.07;76.67;99622.69;7360534;19;20014;-58
2023/03/12 00:26:04;;;;;;;0.10;0.10;;;;;;;11.10;76.43;99614.75;7357915;19;20704;-58
2023/03/12 00:28:30;;;;;;;0.10;0.10;;;;;;;11.10;76.67;99619.97;7357877;19;20054;-58
2023/03/12 00:30:57;;;;;;;0.00;0.00;;;;;;;11.09;76.72;99615.63;7359149;19;20003;-58
2023/03/12 00:33:25;;;;;;;0.00;0.00;;;;;;;11.10;76.49;99630.41;7358141;19;20014;-59
2023/03/12 00:35:52;;;;;;;0.00;0.00;;;;;;;11.12;76.44;99622.50;7356683;19;20814;-58
2023/03/12 00:38:17;;;;;;;0.10;0.10;;;;;;;11.07;76.66;99621.84;7351728;19;20033;-58
2023/03/12 00:40:43;;;;;;;0.10;0.10;;;;;;;11.10;76.81;99626.94;7348300;19;20019;-58
2023/03/12 00:43:08;;;;;;;0.00;0.00;;;;;;;11.10;76.81;99622.59;7341901;19;20082;-58
2023/03/12 00:45:33;;;;;;;0.00;0.00;;;;;;;11.14;76.60;99624.13;7350667;19;20022;-58
2023/03/12 00:47:59;;;;;;;0.00;0.00;;;;;;;11.14;76.72;99624.13;7342930;19;20655;-58
2023/03/12 00:50:24;;;;;;;0.00;0.00;;;;;;;11.14;76.46;99618.91;7342591;19;20063;-58
2023/03/12 00:52:50;;;;;;;0.10;0.10;;;;;;;11.15;76.48;99631.06;7352635;19;20014;-58
2023/03/12 00:55:15;;;;;;;0.10;0.10;;;;;;;11.15;76.59;99620.63;7354179;19;20031;-59
2023/03/12 00:57:41;;;;;;;0.00;0.00;;;;;;;11.16;76.03;99632.78;7355881;19;20078;-58
2023/03/12 01:00:10;;;;;;;0.10;0.10;;;;;;;11.13;76.35;99627.66;7353567;19;20490;-59
2023/03/12 01:02:39;;;;;;;0.10;0.10;;;;;;;11.15;75.91;99610.19;7357482;19;20046;-58
2023/03/12 01:05:07;;;;;;;0.00;0.00;;;;;;;11.11;75.93;99631.28;7351614;19;20010;-58
2023/03/12 01:07:33;;;;;;;0.03;0.03;;;;;;;11.10;76.05;99632.16;7357881;19;20041;-58
2023/03/12 01:09:59;;;;;;;0.10;0.10;;;;;;;11.08;76.01;99649.66;7355647;19;20012;-58
2023/03/12 01:12:24;;;;;;;0.00;0.00;;;;;;;10.97;75.97;99631.84;7354606;19;20704;-58
2023/03/12 01:14:49;;;;;;;0.10;0.10;;;;;;;11.08;76.39;99655.75;7357321;19;20014;-58
2023/03/12 01:17:15;;;;;;;0.00;0.00;;;;;;;11.08;76.28;99654.91;7356360;19;20467;-57
2023/03/12 01:19:40;;;;;;;0.00;0.00;;;;;;;11.07;76.30;99643.59;7351873;19;20022;-58
2023/03/12 01:22:06;;;;;;;0.10;0.10;;;;;;;11.06;76.04;99636.69;7352778;19;20014;-59
2023/03/12 01:24:31;;;;;;;0.00;0.00;;;;;;;11.06;76.01;99646.28;7357445;19;20093;-58
2023/03/12 01:26:57;;;;;;;0.10;0.10;;;;;;;11.06;76.00;99656.75;7357648;19;20038;-58
2023/03/12 01:29:23;;;;;;;0.00;0.00;;;;;;;11.03;75.80;99678.59;7355297;19;20100;-58
2023/03/12 01:31:48;;;;;;;0.10;0.10;;;;;;;11.04;76.13;99663.75;7354771;19;21429;-58
2023/03/12 01:34:14;;;;;;;0.00;0.00;;;;;;;11.03;76.12;99668.16;7355233;19;20014;-58
2023/03/12 01:36:40;;;;;;;0.00;0.00;;;;;;;10.96;75.89;99666.72;7356030;19;20002;-58
2023/03/12 01:39:05;;;;;;;0.03;0.03;;;;;;;10.93;76.23;99666.81;7349820;19;20589;-58
2023/03/12 01:41:32;;;;;;;0.10;0.10;;;;;;;10.98;75.85;99677.94;7355653;19;20942;-58
2023/03/12 01:44:02;;;;;;;0.10;0.10;;;;;;;10.96;76.04;99687.59;7355931;19;20070;-59
2023/03/12 01:46:27;;;;;;;0.00;0.00;;;;;;;10.94;76.26;99673.75;7354169;19;20056;-58
2023/03/12 01:49:14;;;;;;;0.10;0.10;;;;;;;10.97;76.17;99673.63;7356851;19;20019;-58
2023/03/12 01:51:41;;;;;;;0.03;0.03;;;;;;;10.96;75.91;99666.72;7255802;19;2004388;-58
2023/03/12 01:54:15;;;;;;;0.00;0.00;;;;;;;10.93;76.05;99671.19;7349322;19;20034;-58
2023/03/12 01:56:41;;;;;;;0.10;0.10;;;;;;;10.94;75.71;99684.19;7356656;19;20580;-58
2023/03/12 01:59:16;;;;;;;0.10;0.10;;;;;;;10.95;76.10;99690.25;7355036;19;20074;-58
2023/03/12 02:01:42;;;;;;;0.10;0.10;;;;;;;10.92;75.70;99696.47;7355524;19;20016;-58
2023/03/12 02:04:09;;;;;;;0.05;0.05;;;;;;;10.89;75.97;99694.81;7353421;19;20082;-58
2023/03/12 02:06:59;;;;;;;0.00;0.00;;;;;;;10.91;75.67;99687.78;7351621;19;20014;-58
2023/03/12 02:09:25;;;;;;;0.00;0.00;;;;;;;10.89;75.74;99691.34;7356500;19;20815;-58
2023/03/12 02:11:50;;;;;;;0.05;0.05;;;;;;;10.86;76.03;99687.13;7357038;19;21430;-58
2023/03/12 02:14:16;;;;;;;0.03;0.03;;;;;;;10.87;75.68;99698.41;7353903;19;20049;-58
2023/03/12 02:16:42;;;;;;;0.00;0.00;;;;;;;10.84;75.91;99695.91;7356724;19;20018;-58
2023/03/12 02:19:22;;;;;;;0.00;0.00;;;;;;;10.84;76.02;99703.75;7353049;19;20590;-58
2023/03/12 02:21:48;;;;;;;0.00;0.00;;;;;;;10.83;76.32;99707.28;7356518;19;20019;-58
2023/03/12 02:24:18;;;;;;;0.10;0.10;;;;;;;10.83;76.24;99720.34;7350460;19;20038;-58
2023/03/12 02:26:43;;;;;;;0.10;0.10;;;;;;;10.79;75.79;99721.38;7349797;19;20400;-58
2023/03/12 02:29:10;;;;;;;0.10;0.10;;;;;;;10.79;75.83;99711.75;7354961;19;20102;-58
2023/03/12 02:31:43;;;;;;;0.00;0.00;;;;;;;10.81;75.76;99730.84;7354163;19;20005;-58
2023/03/12 02:34:09;;;;;;;0.00;0.00;;;;;;;10.65;75.97;99694.06;7350664;19;20045;-58
2023/03/12 02:36:34;;;;;;;0.00;0.00;;;;;;;10.80;75.63;99723.09;7354474;19;20006;-58
2023/03/12 02:39:00;;;;;;;0.00;0.00;;;;;;;10.73;75.45;99705.94;7355830;19;20290;-58
2023/03/12 02:41:30;;;;;;;0.10;0.10;;;;;;;10.77;75.50;99717.97;7356246;19;25539;-58
2023/03/12 02:44:26;;;;;;;0.00;0.00;;;;;;;10.76;75.67;99714.50;7347947;19;20021;-58
2023/03/12 02:46:58;;;;;;;0.10;0.10;;;;;;;10.51;75.44;99680.69;7250387;19;2004561;-59
2023/03/12 02:49:29;;;;;;;0.00;0.00;;;;;;;10.70;75.47;99725.22;7353487;19;20407;-58
2023/03/12 02:51:55;;;;;;;0.00;0.00;;;;;;;10.70;75.70;99729.59;7355213;19;20920;-58
2023/03/12 02:54:22;;;;;;;0.00;0.00;;;;;;;10.67;76.01;99746.19;7353996;19;25483;-57
2023/03/12 02:56:48;;;;;;;0.00;0.00;;;;;;;10.67;76.11;99734.91;7353937;19;20031;-58
2023/03/12 02:59:14;;;;;;;0.00;0.00;;;;;;;10.68;75.94;99744.44;7339791;19;20030;-58
2023/03/12 03:01:40;;;;;;;0.10;0.10;;;;;;;10.65;75.88;99720.16;7347689;19;20018;-58
2023/03/12 03:04:07;;;;;;;0.00;0.00;;;;;;;10.65;76.10;99714.09;7350708;19;20018;-58
2023/03/12 03:06:35;;;;;;;0.00;0.00;;;;;;;10.65;76.17;99701.03;7351619;19;20018;-58
2023/03/12 03:09:00;;;;;;;0.00;0.00;;;;;;;10.63;76.13;99698.47;7348499;19;20060;-58
2023/03/12 03:11:26;;;;;;;0.00;0.00;;;;;;;10.61;75.62;99702.91;7346533;19;20014;-58
2023/03/12 03:13:52;;;;;;;0.00;0.00;;;;;;;10.59;75.44;99703.84;7350866;19;20020;-58
2023/03/12 03:16:18;;;;;;;0.00;0.00;;;;;;;10.57;75.87;99701.31;7347355;19;20023;-58
2023/03/12 03:18:44;;;;;;;0.00;0.00;;;;;;;10.52;75.64;99700.66;7348028;19;20014;-58
2023/03/12 03:21:15;;;;;;;0.10;0.10;;;;;;;10.54;75.35;99729.28;7356539;19;20014;-58
2023/03/12 03:23:45;;;;;;;0.05;0.05;;;;;;;10.49;75.77;99721.66;7358219;19;20488;-58
2023/03/12 03:26:10;;;;;;;0.00;0.00;;;;;;;10.46;75.43;99728.75;7357343;19;20756;-58
2023/03/12 03:28:36;;;;;;;0.10;0.10;;;;;;;10.41;75.86;99736.75;7359006;19;20014;-58
2023/03/12 03:31:02;;;;;;;0.10;0.10;;;;;;;10.33;75.52;99749.22;7357873;19;20018;-58
2023/03/12 03:33:29;;;;;;;0.10;0.10;;;;;;;10.37;76.08;99761.25;7354318;19;20295;-58
2023/03/12 03:35:58;;;;;;;0.05;0.05;;;;;;;10.30;75.67;99751.97;7354078;19;20019;-58
2023/03/12 03:38:25;;;;;;;0.00;0.00;;;;;;;10.34;76.03;99745.69;7352748;19;20022;-58
2023/03/12 03:40:51;;;;;;;0.10;0.10;;;;;;;10.32;76.04;99753.59;7354254;19;20044;-58
2023/03/12 03:43:17;;;;;;;0.00;0.00;;;;;;;10.33;76.10;99764.88;7353215;19;20018;-58
2023/03/12 03:45:43;;;;;;;0.05;0.05;;;;;;;10.32;76.05;99764.03;7358995;19;20030;-58
2023/03/12 03:48:10;;;;;;;0.10;0.10;;;;;;;10.33;76.30;99759.66;7356669;19;20018;-58
2023/03/12 03:50:37;;;;;;;0.10;0.10;;;;;;;10.25;76.51;99738.22;7352064;19;20367;-58
2023/03/12 03:53:03;;;;;;;0.10;0.10;;;;;;;10.29;76.35;99747.63;7358086;19;20021;-58
2023/03/12 03:55:28;;;;;;;0.05;0.05;;;;;;;10.32;76.29;99769.25;7356811;19;20016;-58
2023/03/12 03:57:54;;;;;;;0.00;0.00;;;;;;;10.29;75.94;99766.78;7356653;19;20097;-58
2023/03/12 04:00:19;;;;;;;0.00;0.00;;;;;;;10.31;75.78;99771.91;7349905;19;20021;-59
2023/03/12 04:02:45;;;;;;;0.00;0.00;;;;;;;10.27;75.86;99775.53;7358448;19;20018;-58
2023/03/12 04:05:10;;;;;;;0.00;0.00;;;;;;;10.25;75.68;99766.94;7325709;19;20014;-59
2023/03/12 04:07:36;;;;;;;0.00;0.00;;;;;;;10.16;75.74;99772.44;7343802;19;20020;-58
2023/03/12 04:10:02;;;;;;;0.10;0.10;;;;;;;10.19;75.96;99778.41;7350503;19;20014;-58
2023/03/12 04:12:28;;;;;;;0.00;0.00;;;;;;;10.10;75.81;99774.38;7350842;19;20464;-58
2023/03/12 04:14:54;;;;;;;0.10;0.10;;;;;;;10.11;75.89;99783.88;7353514;19;20015;-58
2023/03/12 04:17:20;;;;;;;0.00;0.00;;;;;;;10.09;75.78;99782.25;7351694;19;20046;-59
2023/03/12 04:19:46;;;;;;;0.10;0.10;;;;;;;10.06;76.06;99791.03;7329725;19;20010;-59
2023/03/12 04:22:11;;;;;;;0.00;0.00;;;;;;;9.93;76.15;99761.06;7351382;19;20031;-58
2023/03/12 04:24:37;;;;;;;0.10;0.10;;;;;;;9.90;76.42;99757.72;7350575;19;20093;-58
2023/03/12 04:27:02;;;;;;;0.00;0.00;;;;;;;10.02;76.16;99775.53;7350295;19;20039;-58
2023/03/12 04:29:28;;;;;;;0.10;0.10;;;;;;;9.96;76.46;99776.59;7352626;19;20025;-58
2023/03/12 04:31:53;;;;;;;0.00;0.00;;;;;;;10.01;76.05;99785.13;7349256;19;20011;-58
2023/03/12 04:34:19;;;;;;;0.10;0.10;;;;;;;9.94;76.64;99783.63;7349166;19;20018;-58
2023/03/12 04:36:45;;;;;;;0.00;0.00;;;;;;;10.02;76.29;99785.97;7354137;19;20009;-58
2023/03/12 04:39:11;;;;;;;0.00;0.00;;;;;;;10.01;76.27;99790.34;7348782;19;20049;-58
2023/03/12 04:41:37;;;;;;;0.00;0.00;;;;;;;10.03;76.62;99782.44;7352746;19;20007;-59
2023/03/12 04:44:03;;;;;;;0.00;0.00;;;;;;;10.02;76.69;99767.72;7347687;19;20550;-58
2023/03/12 04:46:28;;;;;;;0.00;0.00;;;;;;;10.02;76.41;99755.50;7352619;19;20038;-58
2023/03/12 04:48:54;;;;;;;0.00;0.00;;;;;;;10.00;76.40;99759.94;7345845;19;20052;-58
2023/03/12 04:51:19;;;;;;;0.10;0.10;;;;;;;10.02;76.68;99765.09;7353656;19;20458;-58
2023/03/12 04:53:45;;;;;;;0.10;0.10;;;;;;;10.03;76.42;99766.78;7352426;19;20029;-58
2023/03/12 04:56:11;;;;;;;0.00;0.00;;;;;;;10.01;76.19;99774.69;7350754;19;20905;-58
2023/03/12 04:58:36;;;;;;;0.00;0.00;;;;;;;9.98;76.40;99772.16;7350861;19;20007;-58
2023/03/12 05:01:02;;;;;;;0.00;0.00;;;;;;;10.01;75.93;99779.06;7352011;19;20014;-58
2023/03/12 05:03:28;;;;;;;0.00;0.00;;;;;;;9.88;75.86;99755.16;7351057;19;20030;-59
2023/03/12 05:05:53;;;;;;;0.10;0.10;;;;;;;9.96;75.66;99760.94;7353083;19;20035;-58
2023/03/12 05:08:18;;;;;;;0.00;0.00;;;;;;;9.94;75.74;99765.38;7356354;19;20044;-58
2023/03/12 05:10:44;;;;;;;0.10;0.10;;;;;;;9.90;76.08;99766.38;7350094;19;20010;-58
2023/03/12 05:13:19;;;;;;;0.00;0.00;;;;;;;9.90;75.72;99771.59;7358410;19;20014;-57
2023/03/12 05:15:46;;;;;;;0.03;0.03;;;;;;;9.84;76.01;99771.81;7354358;19;20492;-58
2023/03/12 05:18:12;;;;;;;0.00;0.00;;;;;;;9.81;76.30;99774.53;7351687;19;20018;-61
2023/03/12 05:20:38;;;;;;;0.00;0.00;;;;;;;9.71;75.98;99765.31;7351293;19;20006;-61
2023/03/12 05:23:04;;;;;;;0.08;0.08;;;;;;;9.78;75.79;99779.84;7351287;19;20502;-61
2023/03/12 05:25:29;;;;;;;0.00;0.00;;;;;;;9.76;76.37;99773.84;7351314;19;20035;-61
2023/03/12 05:27:55;;;;;;;0.00;0.00;;;;;;;9.41;76.07;99715.94;7353822;19;20117;-61
2023/03/12 05:30:20;;;;;;;0.00;0.00;;;;;;;9.77;76.61;99773.78;7352257;19;20014;-61
2023/03/12 05:32:46;;;;;;;0.10;0.10;;;;;;;9.77;76.43;99781.59;7353076;19;20018;-61
2023/03/12 05:35:11;;;;;;;0.00;0.00;;;;;;;9.76;76.59;99774.69;7352296;19;20014;-61
2023/03/12 05:37:37;;;;;;;0.00;0.00;;;;;;;9.76;76.63;99784.25;7351761;19;20025;-61
2023/03/12 05:40:03;;;;;;;0.10;0.10;;;;;;;9.78;76.76;99772.00;7352037;19;20536;-62
2023/03/12 05:42:28;;;;;;;0.00;0.00;;;;;;;9.74;76.90;99773.03;7350216;19;20047;-61
2023/03/12 05:44:53;;;;;;;0.00;0.00;;;;;;;9.82;76.51;99781.44;7354057;19;20653;-62
2023/03/12 05:47:19;;;;;;;0.00;0.00;;;;;;;9.83;76.78;99785.75;7351100;19;20058;-61
2023/03/12 05:49:44;;;;;;;0.00;0.00;;;;;;;9.74;76.70;99760.00;7351126;19;20494;-62
2023/03/12 05:52:10;;;;;;;0.00;0.00;;;;;;;9.87;76.82;99771.69;7350135;19;20742;-62
2023/03/12 05:54:36;;;;;;;0.10;0.10;;;;;;;9.81;76.81;99761.50;7353691;19;20014;-61
2023/03/12 05:57:02;;;;;;;0.03;0.03;;;;;;;9.86;76.40;99770.00;7351564;19;20027;-62
2023/03/12 05:59:28;;;;;;;0.00;0.00;;;;;;;9.87;76.38;99771.69;7352665;19;20021;-61
2023/03/12 06:01:54;;;;;;;0.00;0.00;;;;;;;9.77;76.52;99755.53;7349164;19;20025;-61
2023/03/12 06:04:19;;;;;;;0.03;0.03;;;;;;;9.88;76.22;99773.41;7353074;19;20011;-62
2023/03/12 06:06:45;;;;;;;0.00;0.00;;;;;;;9.56;76.22;99707.59;7350351;19;20021;-62
2023/03/12 06:09:10;;;;;;;0.00;0.00;;;;;;;9.87;76.58;99762.13;7353978;19;20409;-61
2023/03/12 06:11:36;;;;;;;0.00;0.00;;;;;;;9.88;76.30;99752.53;7346456;19;20629;-62
2023/03/12 06:14:02;;;;;;;0.00;0.00;;;;;;;9.86;76.48;99759.56;7355021;19;20013;-62
2023/03/12 06:16:28;;;;;;;0.10;0.10;;;;;;;9.85;76.23;99765.69;7355173;19;20415;-61
2023/03/12 06:18:59;;;;;;;0.00;0.00;;;;;;;9.83;76.46;99767.50;7353548;19;20026;-62
2023/03/12 06:21:27;;;;;;;0.10;0.10;;;;;;;9.81;76.86;99777.13;7355844;19;20031;-61
2023/03/12 06:23:52;;;;;;;0.00;0.00;;;;;;;9.78;76.77;99778.09;7352146;19;20014;-61
2023/03/12 06:26:20;;;;;;;0.10;0.10;;;;;;;9.77;76.40;99780.75;7354812;19;20337;-62
2023/03/12 06:28:46;;;;;;;0.00;0.00;;;;;;;9.77;76.49;99780.75;7354296;19;20022;-62
2023/03/12 06:31:12;;;;;;;0.00;0.00;;;;;;;9.73;76.46;99779.13;7354067;19;20020;-62
2023/03/12 06:33:38;;;;;;;0.10;0.10;;;;;;;9.72;76.41;99773.06;7351595;19;20014;-61
2023/03/12 06:36:05;;;;;;;0.00;0.00;;;;;;;9.60;76.18;99750.91;7353437;19;20495;-62
2023/03/12 06:38:31;;;;;;;0.00;0.00;;;;;;;9.70;76.32;99779.25;7354307;19;20011;-62
2023/03/12 06:41:18;;;;;;;0.08;0.08;;;;;;;9.72;75.91;99767.00;7353490;19;21767;-62
2023/03/12 06:43:44;;;;;;;0.00;0.00;;;;;;;9.56;76.37;99756.25;7249733;19;2004277;-62
2023/03/12 06:46:15;;;;;;;0.00;0.00;;;;;;;9.68;76.00;99781.94;7353318;19;20056;-61
2023/03/12 06:48:41;;;;;;;0.00;0.00;;;;;;;9.65;76.65;99791.59;7347714;19;20014;-61
2023/03/12 06:51:12;;;;;;;0.03;0.03;;;;;;;9.62;76.22;99762.09;7353069;19;20492;-62
2023/03/12 06:53:38;;;;;;;0.00;0.00;;;;;;;9.65;76.37;99766.38;7355041;19;20020;-62
2023/03/12 06:56:04;;;;;;;0.10;0.10;;;;;;;9.53;76.18;99741.59;7358790;19;20638;-61
2023/03/12 06:58:30;;;;;;;0.10;0.10;;;;;;;9.60;76.59;99753.50;7347289;19;20097;-61
2023/03/12 07:00:55;;;;;;;0.00;0.00;;;;;;;9.67;76.67;99764.56;7357161;19;20022;-62
2023/03/12 07:03:21;;;;;;;0.10;0.10;;;;;;;9.69;76.41;99754.09;7355026;19;20934;-61
2023/03/12 07:05:48;;;;;;;0.00;0.00;;;;;;;9.71;76.46;99754.88;7356386;19;20013;-62
2023/03/12 07:08:14;;;;;;;0.00;0.00;;;;;;;9.57;76.54;99735.34;7355484;19;20010;-62
2023/03/12 07:10:40;;;;;;;0.00;0.00;;;;;;;9.73;76.90;99764.38;7358229;19;20983;-62
2023/03/12 07:13:06;;;;;;;0.00;0.00;;;;;;;9.76;76.54;99773.84;7356923;19;20014;-61
2023/03/12 07:15:31;;;;;;;0.00;0.00;;;;;;;9.76;76.76;99747.75;7358534;19;20032;-62
2023/03/12 07:18:04;;;;;;;0.10;0.10;;;;;;;9.79;76.56;99758.09;7353602;19;20018;-62
2023/03/12 07:20:30;;;;;;;0.05;0.05;;;;;;;9.77;76.38;99752.91;7354743;19;20010;-62
2023/03/12 07:22:56;;;;;;;0.00;0.00;;;;;;;9.81;76.73;99754.50;7345300;19;20753;-62
2023/03/12 07:25:21;;;;;;;0.10;0.10;;;;;;;9.82;76.51;99764.03;7356567;19;20013;-61
2023/03/12 07:27:46;;;;;;;0.00;0.00;;;;;;;9.85;76.59;99763.09;7358876;19;20018;-62
2023/03/12 07:30:12;;;;;;;0.00;0.00;;;;;;;9.87;76.75;99766.47;7357600;19;20014;-61
2023/03/12 07:32:37;;;;;;;0.10;0.10;;;;;;;9.90;76.46;99769.00;7358485;19;20719;-62
2023/03/12 07:35:04;;;;;;;0.00;0.00;;;;;;;9.93;76.85;99771.47;7355877;19;20034;-62
2023/03/12 07:37:29;;;;;;;0.10;0.10;;;;;;;9.94;76.79;99770.59;7356765;19;20002;-62
2023/03/12 07:39:55;;;;;;;0.00;0.00;;;;;;;9.97;76.44;99769.63;7355175;19;20617;-61
2023/03/12 07:42:21;;;;;;;0.10;0.10;;;;;;;9.98;76.31;99769.56;7354048;19;20006;-62
2023/03/12 07:44:46;;;;;;;0.00;0.00;;;;;;;10.01;76.74;99763.41;7355771;19;20002;-62
2023/03/12 07:47:12;;;;;;;0.00;0.00;;;;;;;10.06;76.74;99761.47;7357027;19;20018;-62
2023/03/12 07:49:40;;;;;;;0.00;0.00;;;;;;;10.08;76.74;99763.13;7355400;19;20077;-62
2023/03/12 07:52:08;;;;;;;0.00;0.00;;;;;;;10.11;76.55;99775.22;7357438;19;20014;-61
2023/03/12 07:54:34;;;;;;;0.00;0.00;;;;;;;10.14;76.38;99770.75;7355686;19;20478;-62
2023/03/12 07:57:00;;;;;;;0.00;0.00;;;;;;;10.17;76.44;99771.53;7354419;19;20014;-62
2023/03/12 07:59:26;;;;;;;0.05;0.05;;;;;;;10.22;76.38;99777.44;7348732;19;22265;-61
2023/03/12 08:01:52;;;;;;;0.00;0.00;;;;;;;10.24;76.28;99776.53;7354398;19;20010;-61
2023/03/12 08:04:18;;;;;;;0.00;0.00;;;;;;;10.27;76.47;99767.72;7356978;19;20019;-62
2023/03/12 08:06:43;;;;;;;0.00;0.00;;;;;;;10.29;76.16;99772.00;7344691;19;20034;-61
2023/03/12 08:09:09;;;;;;;0.03;0.03;;;;;;;10.32;76.08;99763.19;7348119;19;20019;-61
2023/03/12 08:11:35;;;;;;;0.00;0.00;;;;;;;10.29;76.13;99750.22;7357269;19;20010;-61
2023/03/12 08:14:02;;;;;;;0.00;0.00;;;;;;;10.36;76.24;99757.78;7353412;19;20014;-61
2023/03/12 08:16:27;;;;;;;0.00;0.00;;;;;;;10.13;75.91;99722.06;7356032;19;20011;-61
2023/03/12 08:18:53;;;;;;;0.00;0.00;;;;;;;10.46;76.30;99786.16;7350376;19;21139;-62
2023/03/12 08:21:18;;;;;;;0.00;0.00;;;;;;;10.50;76.17;99767.72;7357268;19;20003;-61
2023/03/12 08:23:44;;;;;;;0.00;0.00;;;;;;;10.52;76.10;99768.50;7356343;19;20014;-61
2023/03/12 08:26:09;;;;;;;0.10;0.10;;;;;;;10.54;76.01;99779.78;7353810;19;20014;-62
2023/03/12 08:28:35;;;;;;;0.00;0.00;;;;;;;10.57;75.86;99784.84;7358061;19;20014;-61
2023/03/12 08:31:01;;;;;;;0.10;0.10;;;;;;;10.60;75.99;99774.31;7354933;19;20064;-62
2023/03/12 08:33:26;;;;;;;0.00;0.00;;;;;;;10.53;75.92;99751.94;7355076;19;20095;-62
2023/03/12 08:35:52;;;;;;;0.10;0.10;;;;;;;10.69;75.68;99786.16;7354663;19;20117;-62
2023/03/12 08:38:18;;;;;;;0.00;0.00;;;;;;;10.74;75.50;99783.38;7358407;19;20070;-62
2023/03/12 08:40:43;;;;;;;0.00;0.00;;;;;;;10.77;75.54;99780.66;7353582;19;20018;-62
2023/03/12 08:43:09;;;;;;;0.00;0.00;;;;;;;10.75;75.70;99769.41;7349554;19;20376;-62
2023/03/12 08:45:35;;;;;;;0.00;0.00;;;;;;;10.86;75.70;99775.94;7356321;19;20010;-61
2023/03/12 08:48:02;;;;;;;0.00;0.00;;;;;;;10.88;75.22;99770.63;7350745;19;20351;-62
2023/03/12 08:50:29;;;;;;;0.00;0.00;;;;;;;10.93;75.29;99752.16;7356442;19;20018;-61
2023/03/12 08:52:55;;;;;;;0.00;0.00;;;;;;;11.00;75.10;99753.63;7352617;19;20017;-62
2023/03/12 08:55:21;;;;;;;0.03;0.03;;;;;;;11.01;74.92;99742.28;7357873;19;20074;-61
2023/03/12 08:57:46;;;;;;;0.03;0.03;;;;;;;11.05;75.23;99739.50;7353561;19;20025;-61
2023/03/12 09:00:14;;;;;;;0.00;0.00;;;;;;;11.07;74.88;99723.75;7357892;19;20354;-61
2023/03/12 09:02:42;;;;;;;0.00;0.00;;;;;;;11.15;75.11;99719.03;7352656;19;20014;-61
2023/03/12 09:05:07;;;;;;;0.00;0.00;;;;;;;11.16;74.94;99700.72;7356887;19;20839;-62
2023/03/12 09:07:33;;;;;;;0.10;0.10;;;;;;;11.20;75.14;99696.19;7355987;19;20397;-62
2023/03/12 09:09:58;;;;;;;0.10;0.10;;;;;;;11.22;75.25;99677.84;7356708;19;20002;-61
2023/03/12 09:12:24;;;;;;;0.00;0.00;;;;;;;11.30;74.77;99688.81;7355315;19;20011;-61
2023/03/12 09:14:51;;;;;;;0.10;0.10;;;;;;;11.19;74.76;99644.84;7356740;19;20010;-62
2023/03/12 09:17:16;;;;;;;0.10;0.10;;;;;;;11.40;74.86;99672.72;7346613;19;20041;-62
2023/03/12 09:19:42;;;;;;;0.10;0.10;;;;;;;11.51;75.02;99674.84;7355128;19;20359;-58
2023/03/12 09:22:07;;;;;;;0.00;0.00;;;;;;;11.58;75.08;99678.06;7343176;19;20408;-58
2023/03/12 09:24:32;;;;;;;0.00;0.00;;;;;;;11.63;74.78;99668.25;7352994;19;20628;-58
2023/03/12 09:26:58;;;;;;;0.00;0.00;;;;;;;11.56;74.85;99633.69;7353622;19;20022;-58
2023/03/12 09:29:24;;;;;;;0.00;0.00;;;;;;;11.83;74.83;99664.78;7354586;19;20014;-59
2023/03/12 09:31:50;;;;;;;0.05;0.05;;;;;;;11.88;74.57;99658.44;7354163;19;20633;-58
2023/03/12 09:34:16;;;;;;;0.00;0.00;;;;;;;11.98;74.84;99653.63;7356714;19;20018;-58
2023/03/12 09:36:42;;;;;;;0.10;0.10;;;;;;;12.02;74.65;99649.97;7356789;19;20010;-59
2023/03/12 09:39:07;;;;;;;0.00;0.00;;;;;;;12.14;74.40;99654.63;7356834;19;22129;-58
2023/03/12 09:41:38;;;;;;;0.00;0.00;;;;;;;12.24;74.10;99651.59;7351813;19;20015;-59
2023/03/12 09:44:27;;;;;;;0.00;0.00;;;;;;;12.30;73.99;99651.31;7336262;19;20077;-58
2023/03/12 09:46:56;;;;;;;0.00;0.00;;;;;;;12.30;73.64;99639.06;7356185;19;20632;-58
2023/03/12 09:49:29;;;;;;;0.03;0.03;;;;;;;12.31;73.46;99639.91;7352328;19;20026;-58
2023/03/12 09:51:58;;;;;;;0.00;0.00;;;;;;;12.36;73.31;99645.78;7350370;19;20750;-57
2023/03/12 09:54:40;;;;;;;0.00;0.00;;;;;;;12.36;73.50;99623.06;7333763;19;20011;-58
2023/03/12 09:57:13;;;;;;;0.05;0.05;;;;;;;12.36;73.66;99596.88;7356081;19;20014;-58
2023/03/12 09:59:38;;;;;;;0.10;0.10;;;;;;;12.45;73.52;99600.84;7351556;19;20116;-58
2023/03/12 10:02:29;;;;;;;0.10;0.10;;;;;;;12.56;73.93;99590.69;7354694;19;20014;-58
2023/03/12 10:05:05;;;;;;;0.10;0.10;;;;;;;12.65;73.76;99577.16;7254490;19;2004474;-59
2023/03/12 10:07:41;;;;;;;0.10;0.10;;;;;;;12.71;73.49;99565.53;7355010;19;20014;-58
2023/03/12 10:10:28;;;;;;;0.10;0.10;;;;;;;12.94;74.00;99561.75;7355217;19;20100;-59
2023/03/12 10:13:16;;;;;;;0.10;0.10;;;;;;;13.08;73.48;99546.19;7355683;19;20014;-58
2023/03/12 10:16:30;;;;;;;0.10;0.10;;;;;;;13.31;73.47;99547.63;7356991;19;20945;-58
2023/03/12 10:18:58;;;;;;;0.10;0.10;;;;;;;13.50;73.46;99550.13;7245023;19;2004638;-58
2023/03/12 10:21:33;;;;;;;0.10;0.10;;;;;;;13.72;72.44;99542.81;7346229;19;20176;-59
2023/03/12 10:23:59;;;;;;;0.00;0.00;;;;;;;13.89;72.37;99535.78;7346578;19;20014;-61
2023/03/12 10:26:37;;;;;;;0.10;0.10;;;;;;;14.16;72.76;99529.03;7350753;19;20145;-58
2023/03/12 10:29:05;;;;;;;0.10;0.10;;;;;;;14.28;71.58;99536.19;7353100;19;20007;-58
2023/03/12 10:31:42;;;;;;;0.00;0.00;;;;;;;14.51;71.72;99539.34;7361036;19;20023;-58
2023/03/12 10:34:29;;;;;;;0.00;0.00;;;;;;;14.78;72.52;99548.25;7357648;19;20031;-58
2023/03/12 10:37:01;;;;;;;;;;;;;;;14.98;72.77;99548.84;7353225;19;20521;-57
2023/03/12 10:39:27;;;;;;;0.10;0.10;;;;;;;15.11;69.98;99543.72;7356266;19;20972;-58
2023/03/12 10:41:52;;;;;;;0.10;0.10;;;;;;;15.26;68.78;99538.38;7351888;19;20018;-58
2023/03/12 10:44:23;;;;;;;0.10;0.10;;;;;;;15.40;69.48;99549.84;7357935;19;20029;-57
2023/03/12 10:47:15;;;;;;;0.08;0.08;;;;;;;15.51;68.79;99536.88;7361847;19;20011;-58
2023/03/12 10:49:40;;;;;;;0.10;0.10;;;;;;;15.53;68.13;99540.25;7258940;19;2004477;-58
2023/03/12 10:52:22;;;;;;;0.03;0.03;;;;;;;15.62;68.23;99526.53;7357193;19;20096;-59
2023/03/12 10:54:50;;;;;;;0.10;0.10;;;;;;;15.71;67.35;99539.16;7361750;19;20037;-58
2023/03/12 10:57:16;;;;;;;0.00;0.00;;;;;;;15.90;66.83;99532.72;7354409;19;20024;-58
2023/03/12 10:59:45;;;;;;;0.10;0.10;;;;;;;16.14;66.02;99539.06;7359089;19;20014;-58
2023/03/12 11:02:30;;;;;;;0.00;0.00;;;;;;;16.42;66.73;99537.28;7357699;19;20022;-58
2023/03/12 11:04:57;;;;;;;0.10;0.10;;;;;;;16.61;65.85;99545.66;7358919;19;20022;-58
2023/03/12 11:07:35;;;;;;;0.10;0.10;;;;;;;16.74;64.33;99535.19;7357298;19;20133;-58
2023/03/12 11:10:06;;;;;;;0.10;0.10;;;;;;;16.89;62.46;99543.88;7359178;19;20039;-58
2023/03/12 11:12:36;;;;;;;0.00;0.00;;;;;;;16.70;61.31;99523.97;7359084;19;20035;-57
2023/03/12 11:15:21;;;;;;;0.10;0.10;;;;;;;16.80;63.05;99522.44;7360944;19;20007;-58
2023/03/12 11:17:47;;;;;;;0.10;0.10;;;;;;;16.72;61.80;99522.09;7358585;19;20006;-58
2023/03/12 11:20:28;;;;;;;0.10;0.10;;;;;;;16.74;61.55;99520.22;7358585;19;20412;-57
2023/03/12 11:22:53;;;;;;;0.10;0.10;;;;;;;16.65;60.04;99518.16;7357805;19;20014;-58
2023/03/12 11:25:28;;;;;;;0.00;0.00;;;;;;;16.63;60.76;99514.81;7358978;19;22089;-58
2023/03/12 11:28:04;;;;;;;0.10;0.10;;;;;;;16.54;60.79;99518.03;7351530;19;20023;-58
2023/03/12 11:30:37;;;;;;;0.10;0.10;;;;;;;16.47;60.72;99522.00;7354917;19;20105;-58
2023/03/12 11:33:03;;;;;;;0.10;0.10;;;;;;;16.42;60.22;99518.81;7354044;19;20006;-58
2023/03/12 11:35:56;;;;;;;0.10;0.10;;;;;;;16.49;61.21;99501.69;7355658;19;20024;-57
2023/03/12 11:38:49;;;;;;;0.10;0.10;;;;;;;16.54;60.10;99497.78;7251339;19;2004541;-58
2023/03/12 11:41:51;;;;;;;0.05;0.05;;;;;;;16.70;60.90;99492.34;7353349;19;20014;-57